Main page
METAR-TAF:

METAR-TAF

Airports :

Jefferson County International Airport

Port Townsend, Washington, United States

latitude: 48-03-14N, longitude: 122-48-38W, elevation: 33 m

Current weather observation

The report was made 20 minutes ago, at 10:15 UTC
Calm wind
Temperature 12°C
Humidity 100%
Pressure 1013 hPa
Visibility: 16.1 km
Broken clouds at a height of 3600 ft
Overcast at a height of 4400 ft

METAR: K0S9 171015Z AUTO 00000KT 10SM BKN036 OVC044 12/12 A2991 RMK AO2

Time: 03:35 (10:35 UTC)


TAF: missing

Weather observations and forecasts of more than 4000 airports (METAR and TAF reports).

The available stations are represented by yellow and red dots on the map.

Hover mouse over dot to see the name of the station.

Then click to see weather observations and forecasts.

To change the map : click on the green buttons with a black cross to zoom in, on the green button with a dash to zoom out, or on the green arrows for adjacent maps.


METAR-TAF: